createdAt,value
2022-11-15T00:00:13.615Z,99231.56
2022-11-15T00:02:58.891Z,99236.06
2022-11-15T00:05:44.845Z,99228.97
2022-11-15T00:08:34.848Z,99225.81
2022-11-15T00:11:20.185Z,99216.97
2022-11-15T00:14:05.376Z,99222.69
2022-11-15T00:16:50.977Z,99208.31
2022-11-15T00:19:36.417Z,99201.75
2022-11-15T00:22:21.799Z,99211.28
2022-11-15T00:25:09.146Z,99202.25
2022-11-15T00:27:58.427Z,99195.38
2022-11-15T00:30:43.784Z,99193.69
2022-11-15T00:33:32.751Z,99195.69
2022-11-15T00:36:18.433Z,99183.84
2022-11-15T00:39:06.948Z,99186.63
2022-11-15T00:41:52.414Z,99190.94
2022-11-15T00:44:37.554Z,99184.06
2022-11-15T00:47:22.725Z,99180.38
2022-11-15T00:50:10.706Z,99175.50
2022-11-15T00:52:59.299Z,99169.97
2022-11-15T00:55:44.710Z,99168.22
2022-11-15T00:58:30.127Z,99168.06
2022-11-15T01:01:15.632Z,99157.81
2022-11-15T01:04:01.629Z,99155.13
2022-11-15T01:06:47.536Z,99139.28
2022-11-15T01:09:32.986Z,99140.59
2022-11-15T01:12:18.366Z,99134.19
2022-11-15T01:15:04.473Z,99129.34
2022-11-15T01:17:49.520Z,99132.00
2022-11-15T01:20:34.787Z,99121.78
2022-11-15T01:23:20.572Z,99138.81
2022-11-15T01:26:08.178Z,99112.06
2022-11-15T01:28:53.306Z,99121.56
2022-11-15T01:31:39.102Z,99124.06
2022-11-15T01:34:24.138Z,99118.25
2022-11-15T01:37:09.455Z,99121.56
2022-11-15T01:39:54.902Z,99130.25
2022-11-15T01:42:40.171Z,99121.88
2022-11-15T01:45:25.587Z,99117.25
2022-11-15T01:48:11.930Z,99123.69
2022-11-15T01:50:58.437Z,99124.16
2022-11-15T01:53:48.611Z,99128.50
2022-11-15T01:56:44.672Z,99117.50
2022-11-15T01:59:30.256Z,99102.84
2022-11-15T02:02:15.756Z,99098.97
2022-11-15T02:05:01.113Z,99099.44
2022-11-15T02:07:48.261Z,99094.81
2022-11-15T02:10:33.756Z,99095.03
2022-11-15T02:13:19.201Z,99087.81
2022-11-15T02:16:07.398Z,99112.47
2022-11-15T02:19:24.837Z,99104.97
2022-11-15T02:22:38.037Z,99082.56
2022-11-15T02:25:35.164Z,99086.63
2022-11-15T02:29:16.728Z,99090.22
2022-11-15T02:32:14.876Z,99079.16
2022-11-15T02:35:08.331Z,99066.78
2022-11-15T02:37:59.464Z,99071.03
2022-11-15T02:40:58.351Z,99085.25
2022-11-15T02:44:17.898Z,99051.47
2022-11-15T02:47:16.079Z,99055.00
2022-11-15T02:50:24.439Z,99042.44
2022-11-15T02:53:10.261Z,99026.13
2022-11-15T02:55:57.660Z,99027.78
2022-11-15T02:59:12.424Z,99017.09
2022-11-15T03:02:00.884Z,99016.25
2022-11-15T03:05:07.537Z,99026.50
2022-11-15T03:08:12.682Z,99013.94
2022-11-15T03:11:05.190Z,99009.44
2022-11-15T03:14:02.445Z,99004.19
2022-11-15T03:17:08.918Z,98996.50
2022-11-15T03:20:00.160Z,98993.28
2022-11-15T03:22:48.517Z,99009.31
2022-11-15T03:25:37.721Z,99008.69
2022-11-15T03:28:51.824Z,98997.16
2022-11-15T03:31:51.384Z,99003.31
2022-11-15T03:34:57.007Z,98997.81
2022-11-15T03:37:42.101Z,98976.22
2022-11-15T03:40:54.422Z,98973.91
2022-11-15T03:43:54.675Z,98982.50
2022-11-15T03:46:49.077Z,98974.03
2022-11-15T03:49:37.526Z,98962.94
2022-11-15T03:52:23.284Z,98959.63
2022-11-15T03:55:14.003Z,98946.19
2022-11-15T03:58:01.197Z,98946.84
2022-11-15T04:00:46.141Z,98944.72
2022-11-15T04:03:31.665Z,98939.09
2022-11-15T04:06:17.292Z,98933.09
2022-11-15T04:09:02.642Z,98940.28
2022-11-15T04:11:47.806Z,98931.63
2022-11-15T04:14:33.228Z,98927.31
2022-11-15T04:17:18.423Z,98911.84
2022-11-15T04:20:28.147Z,98910.25
2022-11-15T04:23:32.259Z,98916.44
2022-11-15T04:26:20.657Z,98911.47
2022-11-15T04:29:24.109Z,98916.00
2022-11-15T04:32:09.285Z,98894.16
2022-11-15T04:34:54.517Z,98892.94
2022-11-15T04:37:40.623Z,98897.47
2022-11-15T04:40:28.018Z,98892.94
2022-11-15T04:43:13.409Z,98890.91
2022-11-15T04:45:58.496Z,98882.63
2022-11-15T04:48:43.847Z,98877.75
2022-11-15T04:51:29.335Z,98874.44
2022-11-15T04:54:14.792Z,98873.16
2022-11-15T04:57:00.242Z,98863.94
2022-11-15T04:59:45.574Z,98872.41
2022-11-15T05:02:50.845Z,98876.91
2022-11-15T05:05:36.072Z,98857.56
2022-11-15T05:08:21.543Z,98859.88
2022-11-15T05:11:06.786Z,98851.47
2022-11-15T05:13:52.116Z,98852.28
2022-11-15T05:16:38.257Z,98860.13
2022-11-15T05:19:23.162Z,98848.69
2022-11-15T05:22:08.325Z,98837.00
2022-11-15T05:24:53.657Z,98852.00
2022-11-15T05:27:38.895Z,98861.69
2022-11-15T05:30:24.284Z,98837.06
2022-11-15T05:33:09.602Z,98840.16
2022-11-15T05:36:10.828Z,98870.69
2022-11-15T05:38:56.396Z,98843.13
2022-11-15T05:41:49.026Z,98844.13
2022-11-15T05:44:37.073Z,98839.06
2022-11-15T05:47:26.108Z,98835.34
2022-11-15T05:50:15.797Z,98821.81
2022-11-15T05:53:05.262Z,98813.59
2022-11-15T05:55:50.893Z,98835.00
2022-11-15T05:58:36.504Z,98820.22
2022-11-15T06:01:22.088Z,98814.88
2022-11-15T06:04:07.217Z,98806.47
2022-11-15T06:06:52.476Z,98796.22
2022-11-15T06:09:37.841Z,98792.31
2022-11-15T06:12:23.191Z,98795.19
2022-11-15T06:15:09.247Z,98780.81
2022-11-15T06:17:58.573Z,98797.66
2022-11-15T06:20:43.907Z,98774.88
2022-11-15T06:23:33.442Z,98780.84
2022-11-15T06:26:18.553Z,98776.91
2022-11-15T06:29:05.453Z,98765.56
2022-11-15T06:31:50.737Z,98795.25
2022-11-15T06:34:36.872Z,98761.50
2022-11-15T06:37:22.202Z,98767.72
2022-11-15T06:40:09.064Z,98763.00
2022-11-15T06:43:00.378Z,98753.53
2022-11-15T06:45:45.599Z,98747.19
2022-11-15T06:48:32.696Z,98748.38
2022-11-15T06:51:17.704Z,98745.09
2022-11-15T06:54:03.078Z,98748.81
2022-11-15T06:56:48.329Z,98738.94
2022-11-15T06:59:37.793Z,98733.81
2022-11-15T07:02:25.508Z,98737.28
2022-11-15T07:05:11.820Z,98745.56
2022-11-15T07:07:58.484Z,98750.91
2022-11-15T07:10:44.280Z,98761.59
2022-11-15T07:13:34.820Z,98753.75
2022-11-15T07:16:20.649Z,98751.31
2022-11-15T07:19:05.743Z,98757.03
2022-11-15T07:21:51.026Z,98748.00
2022-11-15T07:24:36.345Z,98749.81
2022-11-15T07:27:21.575Z,98752.72
2022-11-15T07:30:07.419Z,98749.44
2022-11-15T07:33:00.859Z,98751.47
2022-11-15T07:35:49.277Z,98729.50
2022-11-15T07:38:42.221Z,98751.31
2022-11-15T07:41:27.977Z,98724.56
2022-11-15T07:44:13.453Z,98749.25
2022-11-15T07:46:59.199Z,98740.59
2022-11-15T07:49:44.707Z,98739.97
2022-11-15T07:52:29.984Z,98738.94
2022-11-15T07:55:15.200Z,98751.94
2022-11-15T07:58:06.153Z,98756.88
2022-11-15T08:00:51.525Z,98756.88
2022-11-15T08:03:37.448Z,98748.13
2022-11-15T08:06:22.453Z,98755.50
2022-11-15T08:09:07.739Z,98758.75
2022-11-15T08:11:52.989Z,98746.59
2022-11-15T08:14:38.449Z,98737.75
2022-11-15T08:17:25.256Z,98738.41
2022-11-15T08:20:11.106Z,98732.19
2022-11-15T08:23:00.872Z,98727.91
2022-11-15T08:25:46.377Z,98728.75
2022-11-15T08:28:33.253Z,98729.09
2022-11-15T08:31:19.784Z,98718.06
2022-11-15T08:34:07.097Z,98722.94
2022-11-15T08:36:52.168Z,98709.72
2022-11-15T08:39:37.637Z,98727.41
2022-11-15T08:42:22.784Z,98700.22
2022-11-15T08:45:09.598Z,98699.56
2022-11-15T08:47:54.922Z,98705.34
2022-11-15T08:50:40.367Z,98699.75
2022-11-15T08:53:26.126Z,98706.75
2022-11-15T08:56:13.130Z,98674.16
2022-11-15T08:58:58.548Z,98675.59
2022-11-15T09:01:43.857Z,98670.84
2022-11-15T09:04:29.181Z,98654.34
2022-11-15T09:07:15.071Z,98649.25
2022-11-15T09:10:00.467Z,98666.72
2022-11-15T09:12:49.260Z,98656.66
2022-11-15T09:15:34.723Z,98651.50
2022-11-15T09:18:22.196Z,98656.84
2022-11-15T09:21:07.984Z,98642.47
2022-11-15T09:23:53.856Z,98649.63
2022-11-15T09:26:38.967Z,98633.41
2022-11-15T09:29:24.448Z,98623.78
2022-11-15T09:32:10.071Z,98621.94
2022-11-15T09:34:55.519Z,98634.69
2022-11-15T09:37:40.731Z,98631.84
2022-11-15T09:40:27.309Z,98621.53
2022-11-15T09:43:48.771Z,98629.00
2022-11-15T09:47:16.355Z,98666.81
2022-11-15T09:50:18.642Z,98605.97
2022-11-15T09:52:46.702Z,98608.22
2022-11-15T09:55:22.376Z,98604.31
2022-11-15T09:58:04.996Z,98605.97
2022-11-15T10:00:46.412Z,98633.97
2022-11-15T10:03:23.794Z,98605.16
2022-11-15T10:05:53.038Z,98601.22
2022-11-15T10:08:38.012Z,98587.88
2022-11-15T10:14:19.395Z,98575.09
2022-11-15T10:17:18.289Z,98583.75
2022-11-15T10:19:54.108Z,98596.53
2022-11-15T10:22:27.455Z,98581.94
2022-11-15T10:25:27.676Z,98563.81
2022-11-15T10:28:10.290Z,98561.56
2022-11-15T10:30:43.245Z,98565.06
2022-11-15T10:33:37.188Z,98563.63
2022-11-15T10:36:14.465Z,98555.81
2022-11-15T10:38:50.346Z,98555.81
2022-11-15T10:41:30.485Z,98553.16
2022-11-15T10:44:20.921Z,98541.06
2022-11-15T10:47:22.529Z,98508.13
2022-11-15T10:49:59.559Z,98514.06
2022-11-15T10:52:27.710Z,98499.44
2022-11-15T10:55:05.707Z,98507.28
2022-11-15T10:57:37.690Z,98499.84
2022-11-15T11:00:27.775Z,98491.81
2022-11-15T11:03:00.846Z,98480.72
2022-11-15T11:05:42.161Z,98480.72
2022-11-15T11:08:12.337Z,98493.03
2022-11-15T11:11:00.219Z,98470.63
2022-11-15T11:13:38.498Z,98474.31
2022-11-15T11:16:20.999Z,98478.66
2022-11-15T11:19:14.301Z,98465.28
2022-11-15T11:21:57.143Z,98471.91
2022-11-15T11:24:54.617Z,98459.16
2022-11-15T11:27:58.915Z,98468.19
2022-11-15T11:30:34.518Z,98468.19
2022-11-15T11:33:06.357Z,98457.50
2022-11-15T11:35:51.128Z,98454.03
2022-11-15T11:38:22.079Z,98453.81
2022-11-15T11:41:13.239Z,98436.53
2022-11-15T11:43:49.313Z,98450.72
2022-11-15T11:46:33.668Z,98420.66
2022-11-15T11:49:10.963Z,98421.22
2022-11-15T11:51:45.460Z,98409.69
2022-11-15T11:54:20.571Z,98418.75
2022-11-15T11:56:48.067Z,98409.91
2022-11-15T11:59:17.747Z,98397.53
2022-11-15T12:01:45.886Z,98397.56
2022-11-15T12:04:19.167Z,98391.66
2022-11-15T12:06:59.025Z,98379.34
2022-11-15T12:09:42.401Z,98370.88
2022-11-15T12:12:20.157Z,98378.69
2022-11-15T12:14:51.216Z,98385.09
2022-11-15T12:17:23.799Z,98381.19
2022-11-15T12:19:50.858Z,98370.88
2022-11-15T12:22:22.717Z,98370.47
2022-11-15T12:25:14.560Z,98376.66
2022-11-15T12:27:46.205Z,98366.56
2022-11-15T12:30:19.530Z,98358.13
2022-11-15T12:32:58.853Z,98364.50
2022-11-15T12:35:40.945Z,98362.03
2022-11-15T12:38:11.843Z,98351.75
2022-11-15T12:40:59.464Z,98343.91
2022-11-15T12:43:46.582Z,98329.50
2022-11-15T12:46:23.763Z,98333.22
2022-11-15T12:48:52.666Z,98318.41
2022-11-15T12:51:43.370Z,98315.72
2022-11-15T12:54:24.990Z,98306.84
2022-11-15T12:57:03.802Z,98308.06
2022-11-15T13:00:03.549Z,98285.44
2022-11-15T13:02:40.849Z,98286.88
2022-11-15T13:05:36.921Z,98285.44
2022-11-15T13:08:03.649Z,98283.38
2022-11-15T13:10:34.519Z,98279.47
2022-11-15T13:13:02.653Z,98273.94
2022-11-15T13:15:38.223Z,98264.06
2022-11-15T13:18:34.736Z,98261.59
2022-11-15T13:21:03.129Z,98257.47
2022-11-15T13:23:30.121Z,98260.13
2022-11-15T13:26:17.703Z,98241.22
2022-11-15T13:28:51.813Z,98254.38
2022-11-15T13:31:30.711Z,98231.94
2022-11-15T13:34:02.409Z,98220.22
2022-11-15T13:36:36.366Z,98222.91
2022-11-15T13:39:06.449Z,98209.91
2022-11-15T13:41:35.934Z,98206.41
2022-11-15T13:44:04.428Z,98204.78
2022-11-15T13:46:36.274Z,98200.47
2022-11-15T13:49:06.407Z,98201.06
2022-11-15T13:51:48.895Z,98194.91
2022-11-15T13:54:21.883Z,98184.81
2022-11-15T13:56:53.784Z,98177.63
2022-11-15T13:59:34.340Z,98171.84
2022-11-15T14:02:12.307Z,98177.22
2022-11-15T14:04:46.299Z,98169.78
2022-11-15T14:07:22.292Z,98152.09
2022-11-15T14:09:49.801Z,98146.53
2022-11-15T14:12:34.695Z,98143.47
2022-11-15T14:15:19.638Z,98133.38
2022-11-15T14:17:50.099Z,98125.56
2022-11-15T14:20:40.651Z,98113.63
2022-11-15T14:23:29.442Z,98110.53
2022-11-15T14:25:58.669Z,98125.78
2022-11-15T14:28:25.310Z,98101.91
2022-11-15T14:30:54.273Z,98078.06
2022-11-15T14:33:37.326Z,98071.66
2022-11-15T14:36:22.988Z,98080.72
2022-11-15T14:38:49.811Z,98074.38
2022-11-15T14:41:25.569Z,98074.38
2022-11-15T14:43:53.529Z,98085.25
2022-11-15T14:46:20.246Z,98071.50
2022-11-15T14:48:46.940Z,98078.47
2022-11-15T14:51:18.764Z,98069.00
2022-11-15T14:53:46.603Z,98052.16
2022-11-15T14:56:14.161Z,98056.69
2022-11-15T14:58:41.104Z,98045.16
2022-11-15T15:01:15.122Z,98054.63
2022-11-15T15:03:41.921Z,98031.13
2022-11-15T15:06:15.033Z,98051.75
2022-11-15T15:08:44.403Z,98014.50
2022-11-15T15:11:17.878Z,98025.44
2022-11-15T15:13:44.599Z,98003.19
2022-11-15T15:16:11.290Z,98019.69
2022-11-15T15:18:38.035Z,98017.81
2022-11-15T15:21:25.230Z,97999.34
2022-11-15T15:23:54.926Z,98004.47
2022-11-15T15:26:22.315Z,97990.09
2022-11-15T15:28:49.724Z,97983.53
2022-11-15T15:31:16.610Z,97994.41
2022-11-15T15:33:43.446Z,97972.59
2022-11-15T15:36:14.991Z,97964.38
2022-11-15T15:38:42.404Z,97957.56
2022-11-15T15:41:16.530Z,97955.50
2022-11-15T15:43:43.809Z,97941.09
2022-11-15T15:46:15.980Z,97965.78
2022-11-15T15:48:42.987Z,97938.22
2022-11-15T15:51:18.474Z,97940.69
2022-11-15T15:53:46.970Z,97948.09
2022-11-15T15:56:13.621Z,97925.06
2022-11-15T15:58:40.300Z,97922.13
2022-11-15T16:01:07.038Z,97921.72
2022-11-15T16:03:34.003Z,97932.84
2022-11-15T16:06:00.739Z,97921.72
2022-11-15T16:08:31.921Z,97922.94
2022-11-15T16:11:07.243Z,97913.28
2022-11-15T16:13:33.870Z,97911.66
2022-11-15T16:16:01.314Z,97913.28
2022-11-15T16:18:28.010Z,97918.41
2022-11-15T16:20:57.658Z,97914.09
2022-11-15T16:23:25.480Z,97898.66
2022-11-15T16:25:57.244Z,97891.03
2022-11-15T16:28:30.142Z,97887.09
2022-11-15T16:31:02.632Z,97887.09
2022-11-15T16:33:29.529Z,97881.53
2022-11-15T16:35:56.355Z,97878.84
2022-11-15T16:38:23.131Z,97881.53
2022-11-15T16:40:50.050Z,97878.25
2022-11-15T16:43:17.017Z,97902.31
2022-11-15T16:45:43.765Z,97864.66
2022-11-15T16:48:26.303Z,97864.88
2022-11-15T16:50:57.803Z,97852.31
2022-11-15T16:53:25.742Z,97847.56
2022-11-15T16:55:52.554Z,97838.13
2022-11-15T16:58:19.273Z,97825.16
2022-11-15T17:00:46.196Z,97844.91
2022-11-15T17:03:13.198Z,97839.34
2022-11-15T17:05:39.864Z,97829.66
2022-11-15T17:08:06.678Z,97813.63
2022-11-15T17:10:33.365Z,97802.34
2022-11-15T17:13:00.119Z,97806.84
2022-11-15T17:15:26.946Z,97822.69
2022-11-15T17:17:54.913Z,97815.28
2022-11-15T17:20:25.128Z,97818.75
2022-11-15T17:22:53.021Z,97805.19
2022-11-15T17:25:20.424Z,97788.31
2022-11-15T17:27:47.567Z,97799.63
2022-11-15T17:30:20.072Z,97790.75
2022-11-15T17:32:49.859Z,97789.56
2022-11-15T17:35:16.612Z,97785.81
2022-11-15T17:37:44.389Z,97778.84
2022-11-15T17:40:11.421Z,97801.88
2022-11-15T17:42:41.924Z,97804.75
2022-11-15T17:45:10.524Z,97772.88
2022-11-15T17:47:37.462Z,97785.63
2022-11-15T17:50:05.186Z,97791.31
2022-11-15T17:52:31.911Z,97790.50
2022-11-15T17:54:58.621Z,97780.63
2022-11-15T17:57:25.363Z,97782.50
2022-11-15T17:59:53.543Z,97801.66
2022-11-15T18:02:20.374Z,97801.81
2022-11-15T18:04:47.115Z,97798.13
2022-11-15T18:07:14.250Z,97785.75
2022-11-15T18:09:44.139Z,97785.75
2022-11-15T18:12:11.831Z,97792.16
2022-11-15T18:14:38.527Z,97784.50
2022-11-15T18:17:05.257Z,97795.44
2022-11-15T18:19:32.051Z,97792.31
2022-11-15T18:22:01.917Z,97788.63
2022-11-15T18:24:34.937Z,97799.31
2022-11-15T18:27:03.188Z,97790.69
2022-11-15T18:29:30.205Z,97803.03
2022-11-15T18:31:57.817Z,97797.66
2022-11-15T18:34:32.131Z,97807.94
2022-11-15T18:36:59.766Z,97807.94
2022-11-15T18:39:26.408Z,97807.09
2022-11-15T18:41:53.175Z,97812.69
2022-11-15T18:44:19.857Z,97819.88
2022-11-15T18:46:46.711Z,97804.28
2022-11-15T18:49:16.548Z,97818.06
2022-11-15T18:51:43.800Z,97818.69
2022-11-15T18:54:13.024Z,97815.19
2022-11-15T18:56:40.687Z,97816.00
2022-11-15T18:59:08.681Z,97824.22
2022-11-15T19:01:38.305Z,97818.06
2022-11-15T19:04:25.297Z,97817.00
2022-11-15T19:06:53.523Z,97825.47
2022-11-15T19:09:20.378Z,97816.19
2022-11-15T19:11:48.454Z,97816.19
2022-11-15T19:14:17.342Z,97827.50
2022-11-15T19:16:52.561Z,97830.16
2022-11-15T19:19:21.941Z,97841.25
2022-11-15T19:21:48.862Z,97834.06
2022-11-15T19:24:15.632Z,97824.59
2022-11-15T19:26:43.000Z,97831.59
2022-11-15T19:29:10.549Z,97836.47
2022-11-15T19:31:38.055Z,97840.81
2022-11-15T19:34:06.808Z,97842.22
2022-11-15T19:36:39.427Z,97841.22
2022-11-15T19:39:10.074Z,97844.69
2022-11-15T19:41:38.713Z,97843.88
2022-11-15T19:44:06.527Z,97845.97
2022-11-15T19:46:34.039Z,97853.59
2022-11-15T19:49:01.062Z,97857.75
2022-11-15T19:51:30.382Z,97869.25
2022-11-15T19:54:01.365Z,97879.16
2022-11-15T19:56:28.069Z,97870.31
2022-11-15T19:58:56.385Z,97867.19
2022-11-15T20:01:24.845Z,97878.13
2022-11-15T20:03:54.730Z,97872.53
2022-11-15T20:06:33.153Z,97874.19
2022-11-15T20:09:00.291Z,97875.00
2022-11-15T20:11:27.779Z,97876.41
2022-11-15T20:13:58.818Z,97887.31
2022-11-15T20:16:26.085Z,97891.50
2022-11-15T20:18:53.462Z,97887.78
2022-11-15T20:21:21.531Z,97882.44
2022-11-15T20:23:48.519Z,97887.78
2022-11-15T20:26:15.920Z,97892.31
2022-11-15T20:28:44.763Z,97893.13
2022-11-15T20:31:12.595Z,97898.69
2022-11-15T20:33:40.088Z,97902.63
2022-11-15T20:36:10.041Z,97906.94
2022-11-15T20:38:37.502Z,97907.16
2022-11-15T20:41:04.421Z,97901.59
2022-11-15T20:43:31.261Z,97902.63
2022-11-15T20:45:58.351Z,97902.63
2022-11-15T20:48:25.098Z,97902.81
2022-11-15T20:50:51.970Z,97901.81
2022-11-15T20:53:20.157Z,97896.47
2022-11-15T20:55:52.292Z,97909.19
2022-11-15T20:58:19.437Z,97910.22
2022-11-15T21:00:46.660Z,97914.38
2022-11-15T21:03:14.338Z,97906.34
2022-11-15T21:05:43.132Z,97903.88
2022-11-15T21:08:11.853Z,97900.38
2022-11-15T21:10:58.781Z,97900.16
2022-11-15T21:13:25.885Z,97896.06
2022-11-15T21:15:57.378Z,97894.44
2022-11-15T21:18:24.493Z,97897.09
2022-11-15T21:20:52.154Z,97893.59
2022-11-15T21:23:18.800Z,97891.75
2022-11-15T21:25:50.377Z,97897.09
2022-11-15T21:28:18.198Z,97897.72
2022-11-15T21:30:55.821Z,97895.25
2022-11-15T21:33:23.969Z,97893.38
2022-11-15T21:35:51.722Z,97891.91
2022-11-15T21:38:18.666Z,97890.28
2022-11-15T21:40:45.617Z,97882.88
2022-11-15T21:43:12.322Z,97872.38
2022-11-15T21:45:39.036Z,97875.88
2022-11-15T21:48:06.246Z,97872.16
2022-11-15T21:50:33.014Z,97871.13
2022-11-15T21:52:59.699Z,97862.69
2022-11-15T21:55:26.570Z,97859.00
2022-11-15T21:57:53.284Z,97863.53
2022-11-15T22:00:38.803Z,97864.75
2022-11-15T22:03:05.523Z,97862.94
2022-11-15T22:05:32.409Z,97864.75
2022-11-15T22:07:59.193Z,97860.47
2022-11-15T22:10:25.851Z,97862.94
2022-11-15T22:12:52.562Z,97870.50
2022-11-15T22:15:19.214Z,97874.00
2022-11-15T22:17:57.845Z,97873.59
2022-11-15T22:23:11.679Z,97866.38
2022-11-15T22:25:38.347Z,97866.97
2022-11-15T22:28:05.387Z,97858.94
2022-11-15T22:30:32.145Z,97879.53
2022-11-15T22:32:58.962Z,97871.72
2022-11-15T22:35:25.691Z,97871.28
2022-11-15T22:37:52.852Z,97878.94
2022-11-15T22:40:19.777Z,97873.78
2022-11-15T22:42:46.501Z,97865.16
2022-11-15T22:45:13.341Z,97870.13
2022-11-15T22:47:40.056Z,97868.53
2022-11-15T22:50:08.694Z,97868.34
2022-11-15T22:52:35.885Z,97858.47
2022-11-15T22:55:02.952Z,97859.69
2022-11-15T22:57:29.610Z,97865.88
2022-11-15T22:59:56.379Z,97867.97
2022-11-15T23:02:23.318Z,97868.16
2022-11-15T23:04:50.027Z,97874.31
2022-11-15T23:07:16.787Z,97868.97
2022-11-15T23:09:47.726Z,97870.22
2022-11-15T23:12:35.862Z,97881.97
2022-11-15T23:15:05.524Z,97878.09
2022-11-15T23:17:32.606Z,97879.09
2022-11-15T23:20:07.502Z,97876.44
2022-11-15T23:22:48.997Z,97875.81
2022-11-15T23:25:15.862Z,97885.09
2022-11-15T23:27:45.103Z,97877.69
2022-11-15T23:30:30.977Z,97878.50
2022-11-15T23:33:16.437Z,97891.28
2022-11-15T23:35:43.266Z,97884.66
2022-11-15T23:38:10.084Z,97885.91
2022-11-15T23:40:36.794Z,97883.03
2022-11-15T23:43:03.482Z,97899.69
2022-11-15T23:45:30.324Z,97895.16
2022-11-15T23:48:01.545Z,97893.69
2022-11-15T23:50:28.543Z,97896.97
2022-11-15T23:52:56.325Z,97886.88
2022-11-15T23:55:23.064Z,97896.31
2022-11-15T23:57:49.734Z,97891.19
